sensor_id;sensor_type;location;lat;lon;timestamp;temperature;humidity
31369;DHT22;18004;48.416;10.066;2023-03-01T00:01:48;-0.90;93.90
31369;DHT22;18004;48.416;10.066;2023-03-01T00:04:14;-0.90;94.30
31369;DHT22;18004;48.416;10.066;2023-03-01T00:06:40;-0.90;94.30
31369;DHT22;18004;48.416;10.066;2023-03-01T00:09:07;-0.90;94.30
31369;DHT22;18004;48.416;10.066;2023-03-01T00:11:33;-0.90;94.40
31369;DHT22;18004;48.416;10.066;2023-03-01T00:14:02;-0.90;94.20
31369;DHT22;18004;48.416;10.066;2023-03-01T00:16:33;-0.90;94.40
31369;DHT22;18004;48.416;10.066;2023-03-01T00:18:59;-0.90;94.40
31369;DHT22;18004;48.416;10.066;2023-03-01T00:21:25;-0.80;94.60
31369;DHT22;18004;48.416;10.066;2023-03-01T00:23:52;-0.80;94.60
31369;DHT22;18004;48.416;10.066;2023-03-01T00:26:20;-0.80;94.30
31369;DHT22;18004;48.416;10.066;2023-03-01T00:28:46;-0.80;94.70
31369;DHT22;18004;48.416;10.066;2023-03-01T00:31:15;-0.80;94.70
31369;DHT22;18004;48.416;10.066;2023-03-01T00:33:41;-0.80;94.70
31369;DHT22;18004;48.416;10.066;2023-03-01T00:36:09;-0.80;94.60
31369;DHT22;18004;48.416;10.066;2023-03-01T00:38:44;-0.80;94.90
31369;DHT22;18004;48.416;10.066;2023-03-01T00:41:12;-0.70;95.00
31369;DHT22;18004;48.416;10.066;2023-03-01T00:43:38;-0.80;94.90
31369;DHT22;18004;48.416;10.066;2023-03-01T00:46:06;-0.70;94.80
31369;DHT22;18004;48.416;10.066;2023-03-01T00:48:33;-0.70;94.90
31369;DHT22;18004;48.416;10.066;2023-03-01T00:51:10;-0.70;95.00
31369;DHT22;18004;48.416;10.066;2023-03-01T00:53:37;-0.70;95.10
31369;DHT22;18004;48.416;10.066;2023-03-01T00:56:03;-0.70;94.90
31369;DHT22;18004;48.416;10.066;2023-03-01T00:58:29;-0.70;95.20
31369;DHT22;18004;48.416;10.066;2023-03-01T01:00:55;-0.60;95.10
31369;DHT22;18004;48.416;10.066;2023-03-01T01:03:22;-0.60;95.00
31369;DHT22;18004;48.416;10.066;2023-03-01T01:05:48;-0.60;95.00
31369;DHT22;18004;48.416;10.066;2023-03-01T01:08:14;-0.60;94.80
31369;DHT22;18004;48.416;10.066;2023-03-01T01:10:40;-0.60;94.50
31369;DHT22;18004;48.416;10.066;2023-03-01T01:13:05;-0.60;94.30
31369;DHT22;18004;48.416;10.066;2023-03-01T01:15:34;-0.60;94.50
31369;DHT22;18004;48.416;10.066;2023-03-01T01:18:00;-0.60;94.60
31369;DHT22;18004;48.416;10.066;2023-03-01T01:20:26;-0.50;94.40
31369;DHT22;18004;48.416;10.066;2023-03-01T01:22:52;-0.50;94.50
31369;DHT22;18004;48.416;10.066;2023-03-01T01:25:18;-0.50;94.30
31369;DHT22;18004;48.416;10.066;2023-03-01T01:27:44;-0.50;94.20
31369;DHT22;18004;48.416;10.066;2023-03-01T01:30:10;-0.50;94.00
31369;DHT22;18004;48.416;10.066;2023-03-01T01:32:36;-0.50;93.80
31369;DHT22;18004;48.416;10.066;2023-03-01T01:35:02;-0.50;93.50
31369;DHT22;18004;48.416;10.066;2023-03-01T01:37:28;-0.50;93.50
31369;DHT22;18004;48.416;10.066;2023-03-01T01:40:00;-0.40;93.70
31369;DHT22;18004;48.416;10.066;2023-03-01T01:42:29;-0.40;93.70
31369;DHT22;18004;48.416;10.066;2023-03-01T01:45:33;-0.40;93.70
31369;DHT22;18004;48.416;10.066;2023-03-01T01:48:06;-0.40;93.90
31369;DHT22;18004;48.416;10.066;2023-03-01T01:50:39;-0.40;93.50
31369;DHT22;18004;48.416;10.066;2023-03-01T01:53:16;-0.40;93.30
31369;DHT22;18004;48.416;10.066;2023-03-01T01:55:49;-0.40;93.40
31369;DHT22;18004;48.416;10.066;2023-03-01T01:58:18;-0.30;93.30
31369;DHT22;18004;48.416;10.066;2023-03-01T02:00:44;-0.30;92.90
31369;DHT22;18004;48.416;10.066;2023-03-01T02:03:14;-0.30;92.60
31369;DHT22;18004;48.416;10.066;2023-03-01T02:06:46;-0.30;92.70
31369;DHT22;18004;48.416;10.066;2023-03-01T02:08:57;-0.30;92.40
31369;DHT22;18004;48.416;10.066;2023-03-01T02:11:25;-0.30;92.40
31369;DHT22;18004;48.416;10.066;2023-03-01T02:13:52;-0.30;92.10
31369;DHT22;18004;48.416;10.066;2023-03-01T02:16:19;-0.30;92.30
31369;DHT22;18004;48.416;10.066;2023-03-01T02:18:45;-0.30;92.10
31369;DHT22;18004;48.416;10.066;2023-03-01T02:23:48;-0.30;92.20
31369;DHT22;18004;48.416;10.066;2023-03-01T02:26:33;-0.30;92.20
31369;DHT22;18004;48.416;10.066;2023-03-01T02:29:00;-0.30;92.30
31369;DHT22;18004;48.416;10.066;2023-03-01T02:31:26;-0.20;92.60
31369;DHT22;18004;48.416;10.066;2023-03-01T02:34:10;-0.30;92.90
31369;DHT22;18004;48.416;10.066;2023-03-01T02:36:41;-0.20;92.80
31369;DHT22;18004;48.416;10.066;2023-03-01T02:39:13;-0.20;92.70
31369;DHT22;18004;48.416;10.066;2023-03-01T02:41:45;-0.20;92.70
31369;DHT22;18004;48.416;10.066;2023-03-01T02:44:12;-0.20;93.10
31369;DHT22;18004;48.416;10.066;2023-03-01T02:46:49;-0.20;93.10
31369;DHT22;18004;48.416;10.066;2023-03-01T02:57:26;-0.20;92.90
31369;DHT22;18004;48.416;10.066;2023-03-01T02:59:54;-0.20;92.70
31369;DHT22;18004;48.416;10.066;2023-03-01T03:02:26;-0.20;92.70
31369;DHT22;18004;48.416;10.066;2023-03-01T03:07:35;-0.20;92.40
31369;DHT22;18004;48.416;10.066;2023-03-01T03:10:03;-0.20;92.00
31369;DHT22;18004;48.416;10.066;2023-03-01T03:12:29;-0.20;92.10
31369;DHT22;18004;48.416;10.066;2023-03-01T03:14:55;-0.20;91.80
31369;DHT22;18004;48.416;10.066;2023-03-01T03:17:20;-0.20;91.60
31369;DHT22;18004;48.416;10.066;2023-03-01T03:19:46;-0.10;91.90
31369;DHT22;18004;48.416;10.066;2023-03-01T03:22:12;-0.20;91.90
31369;DHT22;18004;48.416;10.066;2023-03-01T03:24:38;-0.20;91.90
31369;DHT22;18004;48.416;10.066;2023-03-01T03:27:05;-0.10;91.60
31369;DHT22;18004;48.416;10.066;2023-03-01T03:29:31;-0.10;91.60
31369;DHT22;18004;48.416;10.066;2023-03-01T03:31:57;-0.10;91.90
31369;DHT22;18004;48.416;10.066;2023-03-01T03:34:22;-0.10;91.80
31369;DHT22;18004;48.416;10.066;2023-03-01T03:36:53;-0.10;91.80
31369;DHT22;18004;48.416;10.066;2023-03-01T03:39:25;-0.20;91.70
31369;DHT22;18004;48.416;10.066;2023-03-01T03:41:51;-0.10;92.10
31369;DHT22;18004;48.416;10.066;2023-03-01T03:44:17;-0.10;91.80
31369;DHT22;18004;48.416;10.066;2023-03-01T03:46:42;-0.10;91.70
31369;DHT22;18004;48.416;10.066;2023-03-01T03:49:08;-0.10;91.80
31369;DHT22;18004;48.416;10.066;2023-03-01T03:51:34;-0.10;91.70
31369;DHT22;18004;48.416;10.066;2023-03-01T03:54:00;-0.10;91.30
31369;DHT22;18004;48.416;10.066;2023-03-01T03:56:25;-0.20;91.30
31369;DHT22;18004;48.416;10.066;2023-03-01T03:58:52;-0.20;91.20
31369;DHT22;18004;48.416;10.066;2023-03-01T04:01:18;-0.20;91.40
31369;DHT22;18004;48.416;10.066;2023-03-01T04:03:44;-0.20;91.10
31369;DHT22;18004;48.416;10.066;2023-03-01T04:06:13;-0.20;91.10
31369;DHT22;18004;48.416;10.066;2023-03-01T04:08:40;-0.20;91.70
31369;DHT22;18004;48.416;10.066;2023-03-01T04:11:06;-0.20;91.70
31369;DHT22;18004;48.416;10.066;2023-03-01T04:13:52;-0.20;91.70
31369;DHT22;18004;48.416;10.066;2023-03-01T04:16:19;-0.20;91.60
31369;DHT22;18004;48.416;10.066;2023-03-01T04:18:45;-0.20;91.70
31369;DHT22;18004;48.416;10.066;2023-03-01T04:21:11;-0.20;91.90
31369;DHT22;18004;48.416;10.066;2023-03-01T04:23:37;-0.20;92.10
31369;DHT22;18004;48.416;10.066;2023-03-01T04:26:04;-0.20;92.40
31369;DHT22;18004;48.416;10.066;2023-03-01T04:28:33;-0.20;92.40
31369;DHT22;18004;48.416;10.066;2023-03-01T04:31:07;-0.20;92.10
31369;DHT22;18004;48.416;10.066;2023-03-01T04:33:47;-0.20;92.50
31369;DHT22;18004;48.416;10.066;2023-03-01T04:36:15;-0.20;92.50
31369;DHT22;18004;48.416;10.066;2023-03-01T04:38:42;-0.20;92.50
31369;DHT22;18004;48.416;10.066;2023-03-01T04:41:10;-0.20;92.30
31369;DHT22;18004;48.416;10.066;2023-03-01T04:43:37;-0.30;92.20
31369;DHT22;18004;48.416;10.066;2023-03-01T04:46:06;-0.20;92.10
31369;DHT22;18004;48.416;10.066;2023-03-01T04:48:35;-0.20;92.00
31369;DHT22;18004;48.416;10.066;2023-03-01T04:51:01;-0.20;92.10
31369;DHT22;18004;48.416;10.066;2023-03-01T04:53:27;-0.20;92.00
31369;DHT22;18004;48.416;10.066;2023-03-01T04:55:56;-0.20;91.90
31369;DHT22;18004;48.416;10.066;2023-03-01T04:58:24;-0.20;92.20
31369;DHT22;18004;48.416;10.066;2023-03-01T05:00:50;-0.20;92.40
31369;DHT22;18004;48.416;10.066;2023-03-01T05:03:16;-0.20;92.80
31369;DHT22;18004;48.416;10.066;2023-03-01T05:05:47;-0.20;92.40
31369;DHT22;18004;48.416;10.066;2023-03-01T05:08:13;-0.20;92.60
31369;DHT22;18004;48.416;10.066;2023-03-01T05:10:49;-0.20;92.40
31369;DHT22;18004;48.416;10.066;2023-03-01T05:13:15;-0.30;92.50
31369;DHT22;18004;48.416;10.066;2023-03-01T05:15:54;-0.30;92.70
31369;DHT22;18004;48.416;10.066;2023-03-01T05:18:20;-0.30;92.80
31369;DHT22;18004;48.416;10.066;2023-03-01T05:20:46;-0.40;93.20
31369;DHT22;18004;48.416;10.066;2023-03-01T05:23:13;-0.40;93.00
31369;DHT22;18004;48.416;10.066;2023-03-01T05:25:39;-0.50;93.40
31369;DHT22;18004;48.416;10.066;2023-03-01T05:28:07;-0.50;93.50
31369;DHT22;18004;48.416;10.066;2023-03-01T05:30:35;-0.50;93.60
31369;DHT22;18004;48.416;10.066;2023-03-01T05:33:02;-0.50;94.00
31369;DHT22;18004;48.416;10.066;2023-03-01T05:35:28;-0.50;93.80
31369;DHT22;18004;48.416;10.066;2023-03-01T05:37:55;-0.50;94.00
31369;DHT22;18004;48.416;10.066;2023-03-01T05:40:23;-0.60;94.00
31369;DHT22;18004;48.416;10.066;2023-03-01T05:42:58;-0.60;93.90
31369;DHT22;18004;48.416;10.066;2023-03-01T05:45:25;-0.60;93.70
31369;DHT22;18004;48.416;10.066;2023-03-01T05:47:52;-0.60;93.70
31369;DHT22;18004;48.416;10.066;2023-03-01T05:50:22;-0.60;94.00
31369;DHT22;18004;48.416;10.066;2023-03-01T05:52:50;-0.70;93.90
31369;DHT22;18004;48.416;10.066;2023-03-01T05:55:20;-0.80;94.10
31369;DHT22;18004;48.416;10.066;2023-03-01T05:57:47;-0.80;94.20
31369;DHT22;18004;48.416;10.066;2023-03-01T06:00:15;-0.90;94.40
31369;DHT22;18004;48.416;10.066;2023-03-01T06:02:41;-0.90;94.50
31369;DHT22;18004;48.416;10.066;2023-03-01T06:05:09;-1.00;95.00
31369;DHT22;18004;48.416;10.066;2023-03-01T06:07:35;-1.00;94.90
31369;DHT22;18004;48.416;10.066;2023-03-01T06:10:02;-1.00;95.10
31369;DHT22;18004;48.416;10.066;2023-03-01T06:12:32;-1.00;95.10
31369;DHT22;18004;48.416;10.066;2023-03-01T06:14:58;-1.00;95.00
31369;DHT22;18004;48.416;10.066;2023-03-01T06:17:24;-1.00;95.10
31369;DHT22;18004;48.416;10.066;2023-03-01T06:19:50;-1.00;94.90
31369;DHT22;18004;48.416;10.066;2023-03-01T06:22:16;-1.00;95.00
31369;DHT22;18004;48.416;10.066;2023-03-01T06:24:42;-1.00;95.30
31369;DHT22;18004;48.416;10.066;2023-03-01T06:27:08;-1.10;95.10
31369;DHT22;18004;48.416;10.066;2023-03-01T06:29:34;-1.10;95.20
31369;DHT22;18004;48.416;10.066;2023-03-01T06:31:59;-1.10;95.30
31369;DHT22;18004;48.416;10.066;2023-03-01T06:34:25;-1.10;95.50
31369;DHT22;18004;48.416;10.066;2023-03-01T06:36:51;-1.20;95.40
31369;DHT22;18004;48.416;10.066;2023-03-01T06:39:17;-1.20;95.80
31369;DHT22;18004;48.416;10.066;2023-03-01T06:41:44;-1.20;95.70
31369;DHT22;18004;48.416;10.066;2023-03-01T06:44:10;-1.20;95.70
31369;DHT22;18004;48.416;10.066;2023-03-01T06:46:35;-1.20;95.90
31369;DHT22;18004;48.416;10.066;2023-03-01T06:49:02;-1.20;95.90
31369;DHT22;18004;48.416;10.066;2023-03-01T06:51:30;-1.20;95.80
31369;DHT22;18004;48.416;10.066;2023-03-01T06:53:55;-1.30;96.10
31369;DHT22;18004;48.416;10.066;2023-03-01T06:56:21;-1.30;96.20
31369;DHT22;18004;48.416;10.066;2023-03-01T06:58:47;-1.30;96.50
31369;DHT22;18004;48.416;10.066;2023-03-01T07:01:13;-1.30;96.60
31369;DHT22;18004;48.416;10.066;2023-03-01T07:03:39;-1.30;96.70
31369;DHT22;18004;48.416;10.066;2023-03-01T07:06:05;-1.30;96.20
31369;DHT22;18004;48.416;10.066;2023-03-01T07:08:31;-1.20;96.00
31369;DHT22;18004;48.416;10.066;2023-03-01T07:10:59;-1.20;95.50
31369;DHT22;18004;48.416;10.066;2023-03-01T07:13:27;-1.20;95.50
31369;DHT22;18004;48.416;10.066;2023-03-01T07:15:53;-1.10;95.20
31369;DHT22;18004;48.416;10.066;2023-03-01T07:18:19;-1.00;94.90
31369;DHT22;18004;48.416;10.066;2023-03-01T07:20:45;-1.00;94.30
31369;DHT22;18004;48.416;10.066;2023-03-01T07:23:10;-1.00;94.30
31369;DHT22;18004;48.416;10.066;2023-03-01T07:25:36;-1.00;94.10
31369;DHT22;18004;48.416;10.066;2023-03-01T07:28:02;-0.90;94.00
31369;DHT22;18004;48.416;10.066;2023-03-01T07:30:28;-0.90;93.90
31369;DHT22;18004;48.416;10.066;2023-03-01T07:32:54;-0.90;93.60
31369;DHT22;18004;48.416;10.066;2023-03-01T07:35:21;-0.90;93.50
31369;DHT22;18004;48.416;10.066;2023-03-01T07:37:47;-0.80;93.30
31369;DHT22;18004;48.416;10.066;2023-03-01T07:40:13;-0.70;93.40
31369;DHT22;18004;48.416;10.066;2023-03-01T07:42:39;-0.70;92.60
31369;DHT22;18004;48.416;10.066;2023-03-01T07:45:05;-0.70;92.30
31369;DHT22;18004;48.416;10.066;2023-03-01T07:47:31;-0.70;91.80
31369;DHT22;18004;48.416;10.066;2023-03-01T07:49:57;-0.60;92.00
31369;DHT22;18004;48.416;10.066;2023-03-01T07:52:23;-0.60;91.90
31369;DHT22;18004;48.416;10.066;2023-03-01T07:54:49;-0.60;92.20
31369;DHT22;18004;48.416;10.066;2023-03-01T07:57:15;-0.60;92.50
31369;DHT22;18004;48.416;10.066;2023-03-01T07:59:41;-0.60;92.10
31369;DHT22;18004;48.416;10.066;2023-03-01T08:02:07;-0.50;90.80
31369;DHT22;18004;48.416;10.066;2023-03-01T08:04:33;-0.40;91.40
31369;DHT22;18004;48.416;10.066;2023-03-01T08:06:59;-0.40;90.20
31369;DHT22;18004;48.416;10.066;2023-03-01T08:09:25;-0.30;90.20
31369;DHT22;18004;48.416;10.066;2023-03-01T08:11:51;-0.30;90.20
31369;DHT22;18004;48.416;10.066;2023-03-01T08:14:17;-0.20;89.30
31369;DHT22;18004;48.416;10.066;2023-03-01T08:16:42;-0.10;87.40
31369;DHT22;18004;48.416;10.066;2023-03-01T08:19:10;-0.10;85.10
31369;DHT22;18004;48.416;10.066;2023-03-01T08:21:37;0.00;85.00
31369;DHT22;18004;48.416;10.066;2023-03-01T08:24:06;0.00;84.30
31369;DHT22;18004;48.416;10.066;2023-03-01T08:26:33;0.00;82.90
31369;DHT22;18004;48.416;10.066;2023-03-01T08:29:00;0.20;81.20
31369;DHT22;18004;48.416;10.066;2023-03-01T08:31:35;0.30;81.00
31369;DHT22;18004;48.416;10.066;2023-03-01T08:34:04;0.20;78.70
31369;DHT22;18004;48.416;10.066;2023-03-01T08:36:33;0.10;76.20
31369;DHT22;18004;48.416;10.066;2023-03-01T08:39:00;0.20;78.70
31369;DHT22;18004;48.416;10.066;2023-03-01T08:41:26;0.30;76.70
31369;DHT22;18004;48.416;10.066;2023-03-01T08:43:53;0.30;73.20
31369;DHT22;18004;48.416;10.066;2023-03-01T08:46:25;0.40;75.10
31369;DHT22;18004;48.416;10.066;2023-03-01T08:48:51;0.60;76.30
31369;DHT22;18004;48.416;10.066;2023-03-01T08:51:19;0.60;74.10
31369;DHT22;18004;48.416;10.066;2023-03-01T08:53:45;0.70;71.50
31369;DHT22;18004;48.416;10.066;2023-03-01T08:56:11;0.70;71.50
31369;DHT22;18004;48.416;10.066;2023-03-01T08:58:37;0.60;68.50
31369;DHT22;18004;48.416;10.066;2023-03-01T09:01:09;0.60;71.40
31369;DHT22;18004;48.416;10.066;2023-03-01T09:03:35;0.80;70.20
31369;DHT22;18004;48.416;10.066;2023-03-01T09:06:02;0.90;71.60
31369;DHT22;18004;48.416;10.066;2023-03-01T09:08:28;1.00;71.30
31369;DHT22;18004;48.416;10.066;2023-03-01T09:10:54;1.00;68.00
31369;DHT22;18004;48.416;10.066;2023-03-01T09:13:20;1.00;68.50
31369;DHT22;18004;48.416;10.066;2023-03-01T09:15:46;1.00;68.80
31369;DHT22;18004;48.416;10.066;2023-03-01T09:18:11;1.10;65.30
31369;DHT22;18004;48.416;10.066;2023-03-01T09:20:37;1.10;68.60
31369;DHT22;18004;48.416;10.066;2023-03-01T09:23:03;1.20;67.10
31369;DHT22;18004;48.416;10.066;2023-03-01T09:25:29;1.30;66.40
31369;DHT22;18004;48.416;10.066;2023-03-01T09:27:54;0.90;66.30
31369;DHT22;18004;48.416;10.066;2023-03-01T09:30:21;1.00;67.40
31369;DHT22;18004;48.416;10.066;2023-03-01T09:32:47;1.10;67.10
31369;DHT22;18004;48.416;10.066;2023-03-01T09:35:13;1.10;65.30
31369;DHT22;18004;48.416;10.066;2023-03-01T09:37:39;1.00;66.20
31369;DHT22;18004;48.416;10.066;2023-03-01T09:40:17;0.90;66.70
31369;DHT22;18004;48.416;10.066;2023-03-01T09:45:45;1.30;66.70
31369;DHT22;18004;48.416;10.066;2023-03-01T09:48:16;1.50;65.70
31369;DHT22;18004;48.416;10.066;2023-03-01T09:50:44;1.70;63.20
31369;DHT22;18004;48.416;10.066;2023-03-01T09:53:21;1.60;61.00
31369;DHT22;18004;48.416;10.066;2023-03-01T09:56:05;1.50;61.90
31369;DHT22;18004;48.416;10.066;2023-03-01T10:01:46;1.70;59.60
31369;DHT22;18004;48.416;10.066;2023-03-01T10:04:40;1.70;59.70
31369;DHT22;18004;48.416;10.066;2023-03-01T10:09:38;2.10;59.30
31369;DHT22;18004;48.416;10.066;2023-03-01T10:12:12;2.00;57.30
31369;DHT22;18004;48.416;10.066;2023-03-01T10:15:02;1.90;57.40
31369;DHT22;18004;48.416;10.066;2023-03-01T10:17:35;1.90;58.20
31369;DHT22;18004;48.416;10.066;2023-03-01T10:20:26;2.10;57.60
31369;DHT22;18004;48.416;10.066;2023-03-01T10:22:52;2.10;56.10
31369;DHT22;18004;48.416;10.066;2023-03-01T10:25:29;2.20;54.20
31369;DHT22;18004;48.416;10.066;2023-03-01T10:28:05;2.20;51.30
31369;DHT22;18004;48.416;10.066;2023-03-01T10:30:37;2.30;53.20
31369;DHT22;18004;48.416;10.066;2023-03-01T10:33:26;2.40;52.20
31369;DHT22;18004;48.416;10.066;2023-03-01T10:35:53;2.70;52.00
31369;DHT22;18004;48.416;10.066;2023-03-01T10:38:20;2.90;50.70
31369;DHT22;18004;48.416;10.066;2023-03-01T10:40:55;3.20;46.40
31369;DHT22;18004;48.416;10.066;2023-03-01T10:43:48;3.30;48.50
31369;DHT22;18004;48.416;10.066;2023-03-01T10:46:34;3.30;44.40
31369;DHT22;18004;48.416;10.066;2023-03-01T10:49:20;3.40;46.00
31369;DHT22;18004;48.416;10.066;2023-03-01T10:51:49;3.40;43.30
31369;DHT22;18004;48.416;10.066;2023-03-01T10:54:33;3.80;43.70
31369;DHT22;18004;48.416;10.066;2023-03-01T10:57:03;3.80;41.80
31369;DHT22;18004;48.416;10.066;2023-03-01T10:59:37;3.90;39.90
31369;DHT22;18004;48.416;10.066;2023-03-01T11:02:15;3.90;38.70
31369;DHT22;18004;48.416;10.066;2023-03-01T11:07:55;4.00;37.30
31369;DHT22;18004;48.416;10.066;2023-03-01T11:10:30;3.90;36.40
31369;DHT22;18004;48.416;10.066;2023-03-01T11:13:08;3.80;38.00
31369;DHT22;18004;48.416;10.066;2023-03-01T11:15:35;3.90;36.10
31369;DHT22;18004;48.416;10.066;2023-03-01T11:18:01;4.00;34.80
31369;DHT22;18004;48.416;10.066;2023-03-01T11:20:35;4.10;38.40
31369;DHT22;18004;48.416;10.066;2023-03-01T11:23:05;4.10;35.40
31369;DHT22;18004;48.416;10.066;2023-03-01T11:25:35;4.00;36.20
31369;DHT22;18004;48.416;10.066;2023-03-01T11:28:04;4.30;33.90
31369;DHT22;18004;48.416;10.066;2023-03-01T11:33:43;4.30;31.10
31369;DHT22;18004;48.416;10.066;2023-03-01T11:36:44;4.50;31.40
31369;DHT22;18004;48.416;10.066;2023-03-01T11:39:29;4.60;32.60
31369;DHT22;18004;48.416;10.066;2023-03-01T11:42:37;4.50;27.20
31369;DHT22;18004;48.416;10.066;2023-03-01T11:45:10;4.70;30.90
31369;DHT22;18004;48.416;10.066;2023-03-01T11:48:41;4.60;27.00
31369;DHT22;18004;48.416;10.066;2023-03-01T11:50:47;4.70;28.20
31369;DHT22;18004;48.416;10.066;2023-03-01T12:02:07;5.20;28.80
31369;DHT22;18004;48.416;10.066;2023-03-01T12:10:27;5.20;26.10
31369;DHT22;18004;48.416;10.066;2023-03-01T12:21:53;5.30;25.80
31369;DHT22;18004;48.416;10.066;2023-03-01T12:30:16;5.30;27.40
31369;DHT22;18004;48.416;10.066;2023-03-01T12:38:24;5.40;24.70
31369;DHT22;18004;48.416;10.066;2023-03-01T12:46:47;5.40;25.40
31369;DHT22;18004;48.416;10.066;2023-03-01T12:49:31;5.60;27.70
31369;DHT22;18004;48.416;10.066;2023-03-01T12:54:36;5.70;25.00
31369;DHT22;18004;48.416;10.066;2023-03-01T12:57:17;5.70;26.30
31369;DHT22;18004;48.416;10.066;2023-03-01T13:00:04;5.80;24.30
31369;DHT22;18004;48.416;10.066;2023-03-01T13:02:47;5.60;24.70
31369;DHT22;18004;48.416;10.066;2023-03-01T13:06:07;6.00;25.60
31369;DHT22;18004;48.416;10.066;2023-03-01T13:08:36;6.10;24.10
31369;DHT22;18004;48.416;10.066;2023-03-01T13:11:21;5.50;24.60
31369;DHT22;18004;48.416;10.066;2023-03-01T13:13:47;5.50;25.70
31369;DHT22;18004;48.416;10.066;2023-03-01T13:21:36;6.00;24.90
31369;DHT22;18004;48.416;10.066;2023-03-01T13:24:02;6.10;24.70
31369;DHT22;18004;48.416;10.066;2023-03-01T13:26:27;6.10;22.80
31369;DHT22;18004;48.416;10.066;2023-03-01T13:28:55;6.00;23.70
31369;DHT22;18004;48.416;10.066;2023-03-01T13:33:58;6.20;22.90
31369;DHT22;18004;48.416;10.066;2023-03-01T13:38:58;6.40;22.40
31369;DHT22;18004;48.416;10.066;2023-03-01T13:41:49;6.50;21.40
31369;DHT22;18004;48.416;10.066;2023-03-01T13:44:37;6.40;20.80
31369;DHT22;18004;48.416;10.066;2023-03-01T13:49:52;6.30;21.10
31369;DHT22;18004;48.416;10.066;2023-03-01T13:52:45;6.60;22.70
31369;DHT22;18004;48.416;10.066;2023-03-01T13:57:47;6.60;21.30
31369;DHT22;18004;48.416;10.066;2023-03-01T14:00:58;6.80;20.00
31369;DHT22;18004;48.416;10.066;2023-03-01T14:03:24;6.80;19.20
31369;DHT22;18004;48.416;10.066;2023-03-01T14:08:27;6.90;19.60
31369;DHT22;18004;48.416;10.066;2023-03-01T14:14:14;7.00;20.10
31369;DHT22;18004;48.416;10.066;2023-03-01T14:19:29;6.80;19.20
31369;DHT22;18004;48.416;10.066;2023-03-01T14:24:31;7.00;19.10
31369;DHT22;18004;48.416;10.066;2023-03-01T14:27:01;7.00;19.60
31369;DHT22;18004;48.416;10.066;2023-03-01T14:29:38;6.90;20.20
31369;DHT22;18004;48.416;10.066;2023-03-01T14:32:23;6.60;19.40
31369;DHT22;18004;48.416;10.066;2023-03-01T14:34:51;6.60;20.40
31369;DHT22;18004;48.416;10.066;2023-03-01T14:37:26;6.50;21.00
31369;DHT22;18004;48.416;10.066;2023-03-01T14:39:53;6.40;20.90
31369;DHT22;18004;48.416;10.066;2023-03-01T14:42:22;6.50;21.00
31369;DHT22;18004;48.416;10.066;2023-03-01T14:44:53;6.40;20.70
31369;DHT22;18004;48.416;10.066;2023-03-01T14:47:32;6.40;21.50
31369;DHT22;18004;48.416;10.066;2023-03-01T14:50:20;6.40;21.60
31369;DHT22;18004;48.416;10.066;2023-03-01T14:52:49;6.40;21.30
31369;DHT22;18004;48.416;10.066;2023-03-01T14:57:52;6.60;21.20
31369;DHT22;18004;48.416;10.066;2023-03-01T15:00:37;6.60;21.30
31369;DHT22;18004;48.416;10.066;2023-03-01T15:06:00;6.60;21.40
31369;DHT22;18004;48.416;10.066;2023-03-01T15:08:27;6.40;21.50
31369;DHT22;18004;48.416;10.066;2023-03-01T15:13:34;6.40;21.60
31369;DHT22;18004;48.416;10.066;2023-03-01T15:18:29;6.40;21.60
31369;DHT22;18004;48.416;10.066;2023-03-01T15:20:56;6.30;21.30
31369;DHT22;18004;48.416;10.066;2023-03-01T15:23:30;6.20;21.10
31369;DHT22;18004;48.416;10.066;2023-03-01T15:25:57;6.30;22.20
31369;DHT22;18004;48.416;10.066;2023-03-01T15:28:28;6.20;22.70
31369;DHT22;18004;48.416;10.066;2023-03-01T15:30:58;6.20;21.90
31369;DHT22;18004;48.416;10.066;2023-03-01T15:33:33;6.20;22.20
31369;DHT22;18004;48.416;10.066;2023-03-01T15:36:03;6.20;21.70
31369;DHT22;18004;48.416;10.066;2023-03-01T15:38:55;6.20;21.10
31369;DHT22;18004;48.416;10.066;2023-03-01T15:41:31;6.20;22.40
31369;DHT22;18004;48.416;10.066;2023-03-01T15:43:58;6.20;22.90
31369;DHT22;18004;48.416;10.066;2023-03-01T15:46:31;6.30;22.80
31369;DHT22;18004;48.416;10.066;2023-03-01T15:52:03;6.30;22.60
31369;DHT22;18004;48.416;10.066;2023-03-01T15:54:29;6.10;22.10
31369;DHT22;18004;48.416;10.066;2023-03-01T15:56:55;6.00;23.60
31369;DHT22;18004;48.416;10.066;2023-03-01T15:59:22;6.00;22.40
31369;DHT22;18004;48.416;10.066;2023-03-01T16:01:48;6.00;23.00
31369;DHT22;18004;48.416;10.066;2023-03-01T16:04:16;6.00;23.20
31369;DHT22;18004;48.416;10.066;2023-03-01T16:06:55;6.10;23.00
31369;DHT22;18004;48.416;10.066;2023-03-01T16:09:24;6.00;22.70
31369;DHT22;18004;48.416;10.066;2023-03-01T16:11:51;6.00;22.40
31369;DHT22;18004;48.416;10.066;2023-03-01T16:14:18;5.90;22.80
31369;DHT22;18004;48.416;10.066;2023-03-01T16:16:45;5.90;22.90
31369;DHT22;18004;48.416;10.066;2023-03-01T16:19:11;5.90;23.30
31369;DHT22;18004;48.416;10.066;2023-03-01T16:21:37;5.90;23.00
31369;DHT22;18004;48.416;10.066;2023-03-01T16:24:03;5.90;23.20
31369;DHT22;18004;48.416;10.066;2023-03-01T16:26:29;5.80;23.40
31369;DHT22;18004;48.416;10.066;2023-03-01T16:28:56;5.80;23.80
31369;DHT22;18004;48.416;10.066;2023-03-01T16:31:23;5.80;24.30
31369;DHT22;18004;48.416;10.066;2023-03-01T16:33:49;5.80;24.30
31369;DHT22;18004;48.416;10.066;2023-03-01T16:36:19;5.80;24.50
31369;DHT22;18004;48.416;10.066;2023-03-01T16:38:45;5.70;24.50
31369;DHT22;18004;48.416;10.066;2023-03-01T16:41:15;5.70;25.30
31369;DHT22;18004;48.416;10.066;2023-03-01T16:43:42;5.60;24.90
31369;DHT22;18004;48.416;10.066;2023-03-01T16:46:17;5.60;25.70
31369;DHT22;18004;48.416;10.066;2023-03-01T16:48:43;5.50;26.00
31369;DHT22;18004;48.416;10.066;2023-03-01T16:51:10;5.50;26.30
31369;DHT22;18004;48.416;10.066;2023-03-01T16:53:36;5.40;26.60
31369;DHT22;18004;48.416;10.066;2023-03-01T16:56:05;5.40;27.50
31369;DHT22;18004;48.416;10.066;2023-03-01T16:58:31;5.40;27.60
31369;DHT22;18004;48.416;10.066;2023-03-01T17:03:32;5.40;27.60
31369;DHT22;18004;48.416;10.066;2023-03-01T17:06:02;5.40;27.60
31369;DHT22;18004;48.416;10.066;2023-03-01T17:08:27;5.30;27.50
31369;DHT22;18004;48.416;10.066;2023-03-01T17:10:53;5.30;27.70
31369;DHT22;18004;48.416;10.066;2023-03-01T17:13:19;5.20;28.30
31369;DHT22;18004;48.416;10.066;2023-03-01T17:15:45;5.20;28.80
31369;DHT22;18004;48.416;10.066;2023-03-01T17:18:10;5.20;28.90
31369;DHT22;18004;48.416;10.066;2023-03-01T17:20:36;5.20;29.10
31369;DHT22;18004;48.416;10.066;2023-03-01T17:23:02;5.20;29.10
31369;DHT22;18004;48.416;10.066;2023-03-01T17:25:28;5.10;29.60
31369;DHT22;18004;48.416;10.066;2023-03-01T17:27:54;5.10;29.70
31369;DHT22;18004;48.416;10.066;2023-03-01T17:30:20;5.10;30.20
31369;DHT22;18004;48.416;10.066;2023-03-01T17:32:46;5.10;30.60
31369;DHT22;18004;48.416;10.066;2023-03-01T17:35:11;5.00;30.70